sensor_id;sensor_type;location;lat;lon;timestamp;temperature;humidity
7196;DHT22;3639;51.308;5.624;2023-07-20T00:01:57;17.60;99.90
7196;DHT22;3639;51.308;5.624;2023-07-20T00:04:23;17.60;99.90
7196;DHT22;3639;51.308;5.624;2023-07-20T00:06:48;17.60;99.90
7196;DHT22;3639;51.308;5.624;2023-07-20T00:09:14;17.40;99.90
7196;DHT22;3639;51.308;5.624;2023-07-20T00:11:40;17.30;99.90
7196;DHT22;3639;51.308;5.624;2023-07-20T00:14:06;17.20;99.90
7196;DHT22;3639;51.308;5.624;2023-07-20T00:16:32;17.10;99.90
7196;DHT22;3639;51.308;5.624;2023-07-20T00:18:57;17.10;99.90
7196;DHT22;3639;51.308;5.624;2023-07-20T00:21:23;17.10;99.90
7196;DHT22;3639;51.308;5.624;2023-07-20T00:23:49;17.10;99.90
7196;DHT22;3639;51.308;5.624;2023-07-20T00:26:15;17.00;99.90
7196;DHT22;3639;51.308;5.624;2023-07-20T00:28:40;17.00;99.90
7196;DHT22;3639;51.308;5.624;2023-07-20T00:31:06;16.90;99.90
7196;DHT22;3639;51.308;5.624;2023-07-20T00:33:32;16.90;99.90
7196;DHT22;3639;51.308;5.624;2023-07-20T00:35:57;16.90;99.90
7196;DHT22;3639;51.308;5.624;2023-07-20T00:38:23;16.80;99.90
7196;DHT22;3639;51.308;5.624;2023-07-20T00:40:49;16.80;99.90
7196;DHT22;3639;51.308;5.624;2023-07-20T00:43:15;16.80;99.90
7196;DHT22;3639;51.308;5.624;2023-07-20T00:45:41;16.70;99.90
7196;DHT22;3639;51.308;5.624;2023-07-20T00:48:06;16.70;99.90
7196;DHT22;3639;51.308;5.624;2023-07-20T00:50:33;16.70;99.90
7196;DHT22;3639;51.308;5.624;2023-07-20T00:52:59;16.60;99.90
7196;DHT22;3639;51.308;5.624;2023-07-20T00:55:26;16.60;99.90
7196;DHT22;3639;51.308;5.624;2023-07-20T00:57:53;16.50;99.90
7196;DHT22;3639;51.308;5.624;2023-07-20T01:00:19;16.50;99.90
7196;DHT22;3639;51.308;5.624;2023-07-20T01:02:45;16.50;99.90
7196;DHT22;3639;51.308;5.624;2023-07-20T01:05:12;16.50;99.90
7196;DHT22;3639;51.308;5.624;2023-07-20T01:08:07;16.40;99.90
7196;DHT22;3639;51.308;5.624;2023-07-20T01:13:01;16.30;99.90
7196;DHT22;3639;51.308;5.624;2023-07-20T01:15:27;16.30;99.90
7196;DHT22;3639;51.308;5.624;2023-07-20T01:17:53;16.40;99.90
7196;DHT22;3639;51.308;5.624;2023-07-20T01:20:20;16.30;99.90
7196;DHT22;3639;51.308;5.624;2023-07-20T01:26:43;16.30;99.90
7196;DHT22;3639;51.308;5.624;2023-07-20T01:29:25;16.20;99.90
7196;DHT22;3639;51.308;5.624;2023-07-20T01:31:54;16.20;99.90
7196;DHT22;3639;51.308;5.624;2023-07-20T01:34:22;16.20;99.90
7196;DHT22;3639;51.308;5.624;2023-07-20T01:36:49;16.10;99.90
7196;DHT22;3639;51.308;5.624;2023-07-20T01:39:16;16.10;99.90
7196;DHT22;3639;51.308;5.624;2023-07-20T01:41:43;16.10;99.90
7196;DHT22;3639;51.308;5.624;2023-07-20T01:44:08;16.00;99.90
7196;DHT22;3639;51.308;5.624;2023-07-20T01:46:34;16.00;99.90
7196;DHT22;3639;51.308;5.624;2023-07-20T01:48:59;16.00;99.90
7196;DHT22;3639;51.308;5.624;2023-07-20T01:51:25;16.00;99.90
7196;DHT22;3639;51.308;5.624;2023-07-20T01:53:51;15.90;99.90
7196;DHT22;3639;51.308;5.624;2023-07-20T01:56:16;15.90;99.90
7196;DHT22;3639;51.308;5.624;2023-07-20T01:58:42;15.90;99.90
7196;DHT22;3639;51.308;5.624;2023-07-20T02:01:07;16.00;99.90
7196;DHT22;3639;51.308;5.624;2023-07-20T02:03:33;16.00;99.90
7196;DHT22;3639;51.308;5.624;2023-07-20T02:05:59;16.00;99.90
7196;DHT22;3639;51.308;5.624;2023-07-20T02:08:24;16.00;99.90
7196;DHT22;3639;51.308;5.624;2023-07-20T02:10:51;16.00;99.90
7196;DHT22;3639;51.308;5.624;2023-07-20T02:13:17;16.00;99.90
7196;DHT22;3639;51.308;5.624;2023-07-20T02:15:43;16.00;99.90
7196;DHT22;3639;51.308;5.624;2023-07-20T02:18:09;16.00;99.90
7196;DHT22;3639;51.308;5.624;2023-07-20T02:20:35;16.00;99.90
7196;DHT22;3639;51.308;5.624;2023-07-20T02:23:01;16.00;99.90
7196;DHT22;3639;51.308;5.624;2023-07-20T02:25:27;16.00;99.90
7196;DHT22;3639;51.308;5.624;2023-07-20T02:27:52;16.00;99.90
7196;DHT22;3639;51.308;5.624;2023-07-20T02:30:18;16.00;99.90
7196;DHT22;3639;51.308;5.624;2023-07-20T02:32:44;15.90;99.90
7196;DHT22;3639;51.308;5.624;2023-07-20T02:35:15;15.90;99.90
7196;DHT22;3639;51.308;5.624;2023-07-20T02:37:40;16.00;99.90
7196;DHT22;3639;51.308;5.624;2023-07-20T02:40:06;15.90;99.90
7196;DHT22;3639;51.308;5.624;2023-07-20T02:42:33;15.90;99.90
7196;DHT22;3639;51.308;5.624;2023-07-20T02:44:58;15.90;99.90
7196;DHT22;3639;51.308;5.624;2023-07-20T02:47:24;15.90;99.90
7196;DHT22;3639;51.308;5.624;2023-07-20T02:49:49;15.90;99.90
7196;DHT22;3639;51.308;5.624;2023-07-20T02:52:15;15.80;99.90
7196;DHT22;3639;51.308;5.624;2023-07-20T02:54:41;15.80;99.90
7196;DHT22;3639;51.308;5.624;2023-07-20T02:57:06;15.80;99.90
7196;DHT22;3639;51.308;5.624;2023-07-20T02:59:32;15.80;99.90
7196;DHT22;3639;51.308;5.624;2023-07-20T03:01:57;15.80;99.90
7196;DHT22;3639;51.308;5.624;2023-07-20T03:04:26;15.80;99.90
7196;DHT22;3639;51.308;5.624;2023-07-20T03:06:52;15.90;99.90
7196;DHT22;3639;51.308;5.624;2023-07-20T03:09:17;15.90;99.90
7196;DHT22;3639;51.308;5.624;2023-07-20T03:11:43;15.90;99.90
7196;DHT22;3639;51.308;5.624;2023-07-20T03:14:08;16.00;99.90
7196;DHT22;3639;51.308;5.624;2023-07-20T03:16:36;16.00;99.90
7196;DHT22;3639;51.308;5.624;2023-07-20T03:19:02;16.00;99.90
7196;DHT22;3639;51.308;5.624;2023-07-20T03:21:29;16.00;99.90
7196;DHT22;3639;51.308;5.624;2023-07-20T03:23:54;16.00;99.90
7196;DHT22;3639;51.308;5.624;2023-07-20T03:26:20;15.90;99.90
7196;DHT22;3639;51.308;5.624;2023-07-20T03:28:46;15.90;99.90
7196;DHT22;3639;51.308;5.624;2023-07-20T03:31:12;15.90;99.90
7196;DHT22;3639;51.308;5.624;2023-07-20T03:33:37;15.90;99.90
7196;DHT22;3639;51.308;5.624;2023-07-20T03:36:03;15.80;99.90
7196;DHT22;3639;51.308;5.624;2023-07-20T03:38:29;15.80;99.90
7196;DHT22;3639;51.308;5.624;2023-07-20T03:40:56;15.80;99.90
7196;DHT22;3639;51.308;5.624;2023-07-20T03:43:23;15.80;99.90
7196;DHT22;3639;51.308;5.624;2023-07-20T03:45:49;15.80;99.90
7196;DHT22;3639;51.308;5.624;2023-07-20T03:48:16;15.80;99.90
7196;DHT22;3639;51.308;5.624;2023-07-20T03:50:43;15.80;99.90
7196;DHT22;3639;51.308;5.624;2023-07-20T03:53:09;15.80;99.90
7196;DHT22;3639;51.308;5.624;2023-07-20T03:55:35;15.70;99.90
7196;DHT22;3639;51.308;5.624;2023-07-20T03:58:02;15.70;99.90
7196;DHT22;3639;51.308;5.624;2023-07-20T04:00:28;15.70;99.90
7196;DHT22;3639;51.308;5.624;2023-07-20T04:02:54;15.70;99.90
7196;DHT22;3639;51.308;5.624;2023-07-20T04:05:20;15.70;99.90
7196;DHT22;3639;51.308;5.624;2023-07-20T04:07:45;15.70;99.90
7196;DHT22;3639;51.308;5.624;2023-07-20T04:10:11;15.70;99.90
7196;DHT22;3639;51.308;5.624;2023-07-20T04:12:37;15.70;99.90
7196;DHT22;3639;51.308;5.624;2023-07-20T04:15:02;15.60;99.90
7196;DHT22;3639;51.308;5.624;2023-07-20T04:17:29;15.70;99.90
7196;DHT22;3639;51.308;5.624;2023-07-20T04:19:54;15.60;99.90
7196;DHT22;3639;51.308;5.624;2023-07-20T04:22:20;15.60;99.90
7196;DHT22;3639;51.308;5.624;2023-07-20T04:24:47;15.70;99.90
7196;DHT22;3639;51.308;5.624;2023-07-20T04:27:12;15.70;99.90
7196;DHT22;3639;51.308;5.624;2023-07-20T04:29:38;15.70;99.90
7196;DHT22;3639;51.308;5.624;2023-07-20T04:32:04;15.70;99.90
7196;DHT22;3639;51.308;5.624;2023-07-20T04:34:29;15.70;99.90
7196;DHT22;3639;51.308;5.624;2023-07-20T04:36:55;15.80;99.90
7196;DHT22;3639;51.308;5.624;2023-07-20T04:39:20;15.80;99.90
7196;DHT22;3639;51.308;5.624;2023-07-20T04:41:46;15.80;99.90
7196;DHT22;3639;51.308;5.624;2023-07-20T04:44:13;15.80;99.90
7196;DHT22;3639;51.308;5.624;2023-07-20T04:46:39;15.80;99.90
7196;DHT22;3639;51.308;5.624;2023-07-20T04:49:06;15.80;99.90
7196;DHT22;3639;51.308;5.624;2023-07-20T04:51:31;15.80;99.90
7196;DHT22;3639;51.308;5.624;2023-07-20T04:53:57;15.80;99.90
7196;DHT22;3639;51.308;5.624;2023-07-20T04:56:24;15.80;99.90
7196;DHT22;3639;51.308;5.624;2023-07-20T04:58:50;15.80;99.90
7196;DHT22;3639;51.308;5.624;2023-07-20T05:01:15;15.80;99.90
7196;DHT22;3639;51.308;5.624;2023-07-20T05:03:41;15.80;99.90
7196;DHT22;3639;51.308;5.624;2023-07-20T05:06:06;15.80;99.90
7196;DHT22;3639;51.308;5.624;2023-07-20T05:08:32;15.80;99.90
7196;DHT22;3639;51.308;5.624;2023-07-20T05:10:59;15.80;99.90
7196;DHT22;3639;51.308;5.624;2023-07-20T05:13:25;15.80;99.90
7196;DHT22;3639;51.308;5.624;2023-07-20T05:15:52;15.80;99.90
7196;DHT22;3639;51.308;5.624;2023-07-20T05:18:18;15.80;99.90
7196;DHT22;3639;51.308;5.624;2023-07-20T05:20:46;15.80;99.90
7196;DHT22;3639;51.308;5.624;2023-07-20T05:23:12;15.90;99.90
7196;DHT22;3639;51.308;5.624;2023-07-20T05:25:38;15.90;99.90
7196;DHT22;3639;51.308;5.624;2023-07-20T05:28:03;15.90;99.90
7196;DHT22;3639;51.308;5.624;2023-07-20T05:30:29;15.90;99.90
7196;DHT22;3639;51.308;5.624;2023-07-20T05:32:55;16.00;99.90
7196;DHT22;3639;51.308;5.624;2023-07-20T05:35:20;16.00;99.90
7196;DHT22;3639;51.308;5.624;2023-07-20T05:37:46;16.20;99.90
7196;DHT22;3639;51.308;5.624;2023-07-20T05:40:13;16.30;99.90
7196;DHT22;3639;51.308;5.624;2023-07-20T05:42:40;16.40;99.90
7196;DHT22;3639;51.308;5.624;2023-07-20T05:45:06;16.60;99.90
7196;DHT22;3639;51.308;5.624;2023-07-20T05:47:32;16.70;99.90
7196;DHT22;3639;51.308;5.624;2023-07-20T05:49:57;16.70;99.90
7196;DHT22;3639;51.308;5.624;2023-07-20T05:52:23;16.80;99.90
7196;DHT22;3639;51.308;5.624;2023-07-20T05:54:48;16.80;99.90
7196;DHT22;3639;51.308;5.624;2023-07-20T05:57:14;16.70;99.90
7196;DHT22;3639;51.308;5.624;2023-07-20T05:59:39;16.60;99.90
7196;DHT22;3639;51.308;5.624;2023-07-20T06:02:09;16.60;99.90
7196;DHT22;3639;51.308;5.624;2023-07-20T06:04:35;16.60;99.90
7196;DHT22;3639;51.308;5.624;2023-07-20T06:07:00;16.60;99.90
7196;DHT22;3639;51.308;5.624;2023-07-20T06:09:26;16.60;99.90
7196;DHT22;3639;51.308;5.624;2023-07-20T06:11:52;16.50;99.90
7196;DHT22;3639;51.308;5.624;2023-07-20T06:14:18;16.50;99.90
7196;DHT22;3639;51.308;5.624;2023-07-20T06:16:44;16.50;99.90
7196;DHT22;3639;51.308;5.624;2023-07-20T06:19:10;16.50;99.90
7196;DHT22;3639;51.308;5.624;2023-07-20T06:21:38;16.50;99.90
7196;DHT22;3639;51.308;5.624;2023-07-20T06:24:05;16.60;99.90
7196;DHT22;3639;51.308;5.624;2023-07-20T06:26:30;16.70;99.90
7196;DHT22;3639;51.308;5.624;2023-07-20T06:28:56;16.90;99.90
7196;DHT22;3639;51.308;5.624;2023-07-20T06:31:22;17.00;99.90
7196;DHT22;3639;51.308;5.624;2023-07-20T06:33:48;17.20;99.90
7196;DHT22;3639;51.308;5.624;2023-07-20T06:36:17;17.30;99.90
7196;DHT22;3639;51.308;5.624;2023-07-20T06:38:43;17.60;99.90
7196;DHT22;3639;51.308;5.624;2023-07-20T06:41:08;17.70;99.90
7196;DHT22;3639;51.308;5.624;2023-07-20T06:43:34;17.80;99.90
7196;DHT22;3639;51.308;5.624;2023-07-20T06:46:00;18.10;99.90
7196;DHT22;3639;51.308;5.624;2023-07-20T06:48:26;18.30;99.90
7196;DHT22;3639;51.308;5.624;2023-07-20T06:50:52;18.40;99.90
7196;DHT22;3639;51.308;5.624;2023-07-20T06:53:17;18.50;99.90
7196;DHT22;3639;51.308;5.624;2023-07-20T06:55:43;18.50;99.90
7196;DHT22;3639;51.308;5.624;2023-07-20T06:58:10;18.50;99.90
7196;DHT22;3639;51.308;5.624;2023-07-20T07:00:36;18.50;99.90
7196;DHT22;3639;51.308;5.624;2023-07-20T07:03:01;18.50;99.90
7196;DHT22;3639;51.308;5.624;2023-07-20T07:05:28;18.50;99.90
7196;DHT22;3639;51.308;5.624;2023-07-20T07:07:53;18.40;99.90
7196;DHT22;3639;51.308;5.624;2023-07-20T07:10:19;18.30;99.90
7196;DHT22;3639;51.308;5.624;2023-07-20T07:12:44;18.20;99.90
7196;DHT22;3639;51.308;5.624;2023-07-20T07:15:10;18.00;99.90
7196;DHT22;3639;51.308;5.624;2023-07-20T07:17:36;17.80;99.90
7196;DHT22;3639;51.308;5.624;2023-07-20T07:20:02;17.70;99.90
7196;DHT22;3639;51.308;5.624;2023-07-20T07:22:29;17.60;99.90
7196;DHT22;3639;51.308;5.624;2023-07-20T07:24:55;17.50;99.90
7196;DHT22;3639;51.308;5.624;2023-07-20T07:27:20;17.40;99.90
7196;DHT22;3639;51.308;5.624;2023-07-20T07:29:46;17.50;99.90
7196;DHT22;3639;51.308;5.624;2023-07-20T07:32:12;17.70;99.90
7196;DHT22;3639;51.308;5.624;2023-07-20T07:34:38;18.00;99.90
7196;DHT22;3639;51.308;5.624;2023-07-20T07:37:06;18.20;99.90
7196;DHT22;3639;51.308;5.624;2023-07-20T07:39:32;18.60;99.90
7196;DHT22;3639;51.308;5.624;2023-07-20T07:41:58;18.90;99.90
7196;DHT22;3639;51.308;5.624;2023-07-20T07:44:24;19.20;99.90
7196;DHT22;3639;51.308;5.624;2023-07-20T07:46:50;19.50;99.90
7196;DHT22;3639;51.308;5.624;2023-07-20T07:49:16;19.90;99.90
7196;DHT22;3639;51.308;5.624;2023-07-20T07:51:42;20.30;99.90
7196;DHT22;3639;51.308;5.624;2023-07-20T07:54:07;20.40;99.90
7196;DHT22;3639;51.308;5.624;2023-07-20T07:56:33;20.40;99.90
7196;DHT22;3639;51.308;5.624;2023-07-20T07:58:59;20.50;99.90
7196;DHT22;3639;51.308;5.624;2023-07-20T08:01:24;20.60;99.90
7196;DHT22;3639;51.308;5.624;2023-07-20T08:03:51;20.60;99.90
7196;DHT22;3639;51.308;5.624;2023-07-20T08:06:16;20.90;99.90
7196;DHT22;3639;51.308;5.624;2023-07-20T08:08:42;21.10;99.90
7196;DHT22;3639;51.308;5.624;2023-07-20T08:11:08;21.10;99.90
7196;DHT22;3639;51.308;5.624;2023-07-20T08:13:34;21.00;99.90
7196;DHT22;3639;51.308;5.624;2023-07-20T08:16:00;20.70;99.90
7196;DHT22;3639;51.308;5.624;2023-07-20T08:18:28;20.60;99.90
7196;DHT22;3639;51.308;5.624;2023-07-20T08:20:53;20.20;99.90
7196;DHT22;3639;51.308;5.624;2023-07-20T08:23:19;20.20;99.90
7196;DHT22;3639;51.308;5.624;2023-07-20T08:25:45;20.30;99.90
7196;DHT22;3639;51.308;5.624;2023-07-20T08:28:12;20.60;99.90
7196;DHT22;3639;51.308;5.624;2023-07-20T08:30:46;21.00;99.90
7196;DHT22;3639;51.308;5.624;2023-07-20T08:33:14;21.50;99.90
7196;DHT22;3639;51.308;5.624;2023-07-20T08:35:39;21.90;99.90
7196;DHT22;3639;51.308;5.624;2023-07-20T08:38:05;22.30;99.90
7196;DHT22;3639;51.308;5.624;2023-07-20T08:40:33;22.50;99.90
7196;DHT22;3639;51.308;5.624;2023-07-20T08:42:59;22.50;99.90
7196;DHT22;3639;51.308;5.624;2023-07-20T08:45:27;22.50;99.90
7196;DHT22;3639;51.308;5.624;2023-07-20T08:47:56;22.40;99.90
7196;DHT22;3639;51.308;5.624;2023-07-20T08:50:24;22.20;99.90
7196;DHT22;3639;51.308;5.624;2023-07-20T08:52:52;22.00;99.90
7196;DHT22;3639;51.308;5.624;2023-07-20T08:55:19;21.80;99.90
7196;DHT22;3639;51.308;5.624;2023-07-20T08:57:45;21.50;99.90
7196;DHT22;3639;51.308;5.624;2023-07-20T09:00:13;21.20;99.90
7196;DHT22;3639;51.308;5.624;2023-07-20T09:02:41;20.90;99.90
7196;DHT22;3639;51.308;5.624;2023-07-20T09:05:08;20.80;99.90
7196;DHT22;3639;51.308;5.624;2023-07-20T09:07:36;21.00;99.90
7196;DHT22;3639;51.308;5.624;2023-07-20T09:10:02;21.20;99.90
7196;DHT22;3639;51.308;5.624;2023-07-20T09:12:41;21.50;99.90
7196;DHT22;3639;51.308;5.624;2023-07-20T09:15:08;21.80;99.90
7196;DHT22;3639;51.308;5.624;2023-07-20T09:17:34;22.00;99.90
7196;DHT22;3639;51.308;5.624;2023-07-20T09:20:07;22.20;99.90
7196;DHT22;3639;51.308;5.624;2023-07-20T09:22:34;22.20;99.90
7196;DHT22;3639;51.308;5.624;2023-07-20T09:25:00;22.20;99.90
7196;DHT22;3639;51.308;5.624;2023-07-20T09:27:38;22.30;99.90
7196;DHT22;3639;51.308;5.624;2023-07-20T09:30:05;22.80;99.90
7196;DHT22;3639;51.308;5.624;2023-07-20T09:32:41;23.00;99.10
7196;DHT22;3639;51.308;5.624;2023-07-20T09:35:22;23.40;97.80
7196;DHT22;3639;51.308;5.624;2023-07-20T09:38:00;23.80;97.10
7196;DHT22;3639;51.308;5.624;2023-07-20T09:40:26;24.00;96.50
7196;DHT22;3639;51.308;5.624;2023-07-20T09:42:53;24.20;94.70
7196;DHT22;3639;51.308;5.624;2023-07-20T09:45:34;24.20;94.70
7196;DHT22;3639;51.308;5.624;2023-07-20T09:48:05;24.10;95.70
7196;DHT22;3639;51.308;5.624;2023-07-20T09:50:40;24.00;96.20
7196;DHT22;3639;51.308;5.624;2023-07-20T09:53:08;24.00;96.80
7196;DHT22;3639;51.308;5.624;2023-07-20T09:55:34;24.20;96.90
7196;DHT22;3639;51.308;5.624;2023-07-20T09:58:00;24.10;97.30
7196;DHT22;3639;51.308;5.624;2023-07-20T10:00:26;24.00;96.60
7196;DHT22;3639;51.308;5.624;2023-07-20T10:02:52;24.00;96.20
7196;DHT22;3639;51.308;5.624;2023-07-20T10:05:19;24.00;95.60
7196;DHT22;3639;51.308;5.624;2023-07-20T10:07:49;24.00;96.30
7196;DHT22;3639;51.308;5.624;2023-07-20T10:10:17;24.00;96.70
7196;DHT22;3639;51.308;5.624;2023-07-20T10:12:48;23.80;97.20
7196;DHT22;3639;51.308;5.624;2023-07-20T10:15:24;23.60;97.00
7196;DHT22;3639;51.308;5.624;2023-07-20T10:18:12;23.50;96.90
7196;DHT22;3639;51.308;5.624;2023-07-20T10:20:40;23.40;96.90
7196;DHT22;3639;51.308;5.624;2023-07-20T10:23:09;23.40;97.00
7196;DHT22;3639;51.308;5.624;2023-07-20T10:25:35;23.30;96.80
7196;DHT22;3639;51.308;5.624;2023-07-20T10:28:05;23.30;97.40
7196;DHT22;3639;51.308;5.624;2023-07-20T10:30:35;23.30;96.50
7196;DHT22;3639;51.308;5.624;2023-07-20T10:33:02;23.40;96.70
7196;DHT22;3639;51.308;5.624;2023-07-20T10:35:28;23.60;97.10
7196;DHT22;3639;51.308;5.624;2023-07-20T10:37:59;24.00;95.80
7196;DHT22;3639;51.308;5.624;2023-07-20T10:40:33;24.40;95.40
7196;DHT22;3639;51.308;5.624;2023-07-20T10:43:06;24.80;95.10
7196;DHT22;3639;51.308;5.624;2023-07-20T10:45:47;25.00;94.60
7196;DHT22;3639;51.308;5.624;2023-07-20T10:48:20;25.30;94.50
7196;DHT22;3639;51.308;5.624;2023-07-20T10:51:12;25.40;93.50
7196;DHT22;3639;51.308;5.624;2023-07-20T10:53:41;25.50;93.70
7196;DHT22;3639;51.308;5.624;2023-07-20T10:56:15;25.20;91.60
7196;DHT22;3639;51.308;5.624;2023-07-20T10:58:44;24.90;92.40
7196;DHT22;3639;51.308;5.624;2023-07-20T11:01:14;24.80;93.80
7196;DHT22;3639;51.308;5.624;2023-07-20T11:03:41;24.70;93.30
7196;DHT22;3639;51.308;5.624;2023-07-20T11:06:30;24.70;92.10
7196;DHT22;3639;51.308;5.624;2023-07-20T11:09:10;24.30;91.20
7196;DHT22;3639;51.308;5.624;2023-07-20T11:11:44;24.30;92.00
7196;DHT22;3639;51.308;5.624;2023-07-20T11:14:24;24.60;92.10
7196;DHT22;3639;51.308;5.624;2023-07-20T11:16:51;25.00;92.20
7196;DHT22;3639;51.308;5.624;2023-07-20T11:19:18;25.30;92.80
7196;DHT22;3639;51.308;5.624;2023-07-20T11:21:54;25.50;91.40
7196;DHT22;3639;51.308;5.624;2023-07-20T11:24:20;25.50;92.30
7196;DHT22;3639;51.308;5.624;2023-07-20T11:26:48;25.60;93.00
7196;DHT22;3639;51.308;5.624;2023-07-20T11:29:15;25.80;91.40
7196;DHT22;3639;51.308;5.624;2023-07-20T11:31:42;25.80;91.00
7196;DHT22;3639;51.308;5.624;2023-07-20T11:34:11;25.70;90.20
7196;DHT22;3639;51.308;5.624;2023-07-20T11:36:39;25.60;89.00
7196;DHT22;3639;51.308;5.624;2023-07-20T11:39:07;25.60;90.20
7196;DHT22;3639;51.308;5.624;2023-07-20T11:41:34;25.50;89.20
7196;DHT22;3639;51.308;5.624;2023-07-20T11:44:00;25.70;91.00
7196;DHT22;3639;51.308;5.624;2023-07-20T11:46:30;26.00;91.20
7196;DHT22;3639;51.308;5.624;2023-07-20T11:48:57;26.20;89.00
7196;DHT22;3639;51.308;5.624;2023-07-20T11:51:24;26.30;86.40
7196;DHT22;3639;51.308;5.624;2023-07-20T11:53:50;26.40;88.90
7196;DHT22;3639;51.308;5.624;2023-07-20T11:56:15;26.30;87.50
7196;DHT22;3639;51.308;5.624;2023-07-20T11:58:43;26.10;86.60
7196;DHT22;3639;51.308;5.624;2023-07-20T12:01:09;26.00;86.30
7196;DHT22;3639;51.308;5.624;2023-07-20T12:03:36;25.80;86.20
7196;DHT22;3639;51.308;5.624;2023-07-20T12:06:13;25.40;86.10
7196;DHT22;3639;51.308;5.624;2023-07-20T12:08:43;25.30;88.10
7196;DHT22;3639;51.308;5.624;2023-07-20T12:11:09;25.20;88.00
7196;DHT22;3639;51.308;5.624;2023-07-20T12:13:40;25.50;86.50
7196;DHT22;3639;51.308;5.624;2023-07-20T12:16:14;25.60;86.40
7196;DHT22;3639;51.308;5.624;2023-07-20T12:18:41;25.50;87.00
7196;DHT22;3639;51.308;5.624;2023-07-20T12:21:07;25.70;87.20
7196;DHT22;3639;51.308;5.624;2023-07-20T12:23:42;25.70;86.50
7196;DHT22;3639;51.308;5.624;2023-07-20T12:26:09;25.70;87.40
7196;DHT22;3639;51.308;5.624;2023-07-20T12:28:39;25.90;86.50
7196;DHT22;3639;51.308;5.624;2023-07-20T12:31:06;25.90;84.00
7196;DHT22;3639;51.308;5.624;2023-07-20T12:33:32;25.80;82.80
7196;DHT22;3639;51.308;5.624;2023-07-20T12:35:58;25.60;83.60
7196;DHT22;3639;51.308;5.624;2023-07-20T12:38:25;25.70;84.90
7196;DHT22;3639;51.308;5.624;2023-07-20T12:40:51;25.90;85.30
7196;DHT22;3639;51.308;5.624;2023-07-20T12:43:16;26.20;83.00
7196;DHT22;3639;51.308;5.624;2023-07-20T12:45:42;26.50;81.10
7196;DHT22;3639;51.308;5.624;2023-07-20T12:48:08;26.70;82.10
7196;DHT22;3639;51.308;5.624;2023-07-20T12:50:34;26.40;81.50
7196;DHT22;3639;51.308;5.624;2023-07-20T12:53:00;26.20;82.80
7196;DHT22;3639;51.308;5.624;2023-07-20T12:55:29;26.10;82.80
7196;DHT22;3639;51.308;5.624;2023-07-20T12:57:55;26.10;81.20
7196;DHT22;3639;51.308;5.624;2023-07-20T13:00:21;26.00;81.70
7196;DHT22;3639;51.308;5.624;2023-07-20T13:02:49;25.80;81.90
7196;DHT22;3639;51.308;5.624;2023-07-20T13:05:15;25.50;82.60
7196;DHT22;3639;51.308;5.624;2023-07-20T13:07:41;25.20;82.50
7196;DHT22;3639;51.308;5.624;2023-07-20T13:10:08;24.80;81.80
7196;DHT22;3639;51.308;5.624;2023-07-20T13:12:34;24.60;83.20
7196;DHT22;3639;51.308;5.624;2023-07-20T13:15:05;24.30;83.30
7196;DHT22;3639;51.308;5.624;2023-07-20T13:17:39;24.10;84.50
7196;DHT22;3639;51.308;5.624;2023-07-20T13:20:06;24.00;85.00
7196;DHT22;3639;51.308;5.624;2023-07-20T13:22:33;24.00;85.30
7196;DHT22;3639;51.308;5.624;2023-07-20T13:24:59;24.10;85.20
7196;DHT22;3639;51.308;5.624;2023-07-20T13:27:25;24.30;86.30
7196;DHT22;3639;51.308;5.624;2023-07-20T13:29:53;24.60;86.20
7196;DHT22;3639;51.308;5.624;2023-07-20T13:32:19;25.00;86.60
7196;DHT22;3639;51.308;5.624;2023-07-20T13:34:45;25.10;85.90
7196;DHT22;3639;51.308;5.624;2023-07-20T13:37:12;25.30;85.60
7196;DHT22;3639;51.308;5.624;2023-07-20T13:39:38;25.40;84.50
7196;DHT22;3639;51.308;5.624;2023-07-20T13:42:05;25.50;85.70
7196;DHT22;3639;51.308;5.624;2023-07-20T13:44:31;25.50;87.00
7196;DHT22;3639;51.308;5.624;2023-07-20T13:46:59;25.50;84.20
7196;DHT22;3639;51.308;5.624;2023-07-20T13:49:25;25.40;82.20
7196;DHT22;3639;51.308;5.624;2023-07-20T13:51:50;25.30;84.40
7196;DHT22;3639;51.308;5.624;2023-07-20T13:54:16;25.20;85.50
7196;DHT22;3639;51.308;5.624;2023-07-20T13:56:42;25.00;86.00
7196;DHT22;3639;51.308;5.624;2023-07-20T13:59:07;24.90;85.20
7196;DHT22;3639;51.308;5.624;2023-07-20T14:01:33;24.90;86.30
7196;DHT22;3639;51.308;5.624;2023-07-20T14:03:59;24.70;86.60
7196;DHT22;3639;51.308;5.624;2023-07-20T14:06:25;24.70;89.70
7196;DHT22;3639;51.308;5.624;2023-07-20T14:08:51;24.80;86.80
7196;DHT22;3639;51.308;5.624;2023-07-20T14:11:18;24.90;87.20
7196;DHT22;3639;51.308;5.624;2023-07-20T14:13:44;25.00;87.20
7196;DHT22;3639;51.308;5.624;2023-07-20T14:16:10;25.10;87.50
7196;DHT22;3639;51.308;5.624;2023-07-20T14:18:36;25.30;85.00
7196;DHT22;3639;51.308;5.624;2023-07-20T14:21:02;25.30;84.80
7196;DHT22;3639;51.308;5.624;2023-07-20T14:23:29;25.20;86.20
7196;DHT22;3639;51.308;5.624;2023-07-20T14:25:54;25.20;85.70
7196;DHT22;3639;51.308;5.624;2023-07-20T14:28:20;25.10;85.40
7196;DHT22;3639;51.308;5.624;2023-07-20T14:30:46;25.10;86.00
7196;DHT22;3639;51.308;5.624;2023-07-20T14:33:12;25.00;85.90
7196;DHT22;3639;51.308;5.624;2023-07-20T14:35:38;25.10;85.50
7196;DHT22;3639;51.308;5.624;2023-07-20T14:38:03;25.00;85.60
7196;DHT22;3639;51.308;5.624;2023-07-20T14:40:29;25.00;85.80
7196;DHT22;3639;51.308;5.624;2023-07-20T14:42:56;24.90;86.50
7196;DHT22;3639;51.308;5.624;2023-07-20T14:45:22;25.00;86.60
7196;DHT22;3639;51.308;5.624;2023-07-20T14:47:48;25.00;85.10
7196;DHT22;3639;51.308;5.624;2023-07-20T14:50:19;24.90;85.00
7196;DHT22;3639;51.308;5.624;2023-07-20T14:52:45;24.50;87.00
7196;DHT22;3639;51.308;5.624;2023-07-20T14:55:11;24.40;86.90
7196;DHT22;3639;51.308;5.624;2023-07-20T14:57:36;24.30;87.50
7196;DHT22;3639;51.308;5.624;2023-07-20T15:00:04;24.30;88.40
7196;DHT22;3639;51.308;5.624;2023-07-20T15:02:33;24.10;89.00
7196;DHT22;3639;51.308;5.624;2023-07-20T15:04:59;24.00;89.20
7196;DHT22;3639;51.308;5.624;2023-07-20T15:07:25;23.90;89.90
7196;DHT22;3639;51.308;5.624;2023-07-20T15:09:51;24.10;90.50
7196;DHT22;3639;51.308;5.624;2023-07-20T15:12:17;24.20;90.00
7196;DHT22;3639;51.308;5.624;2023-07-20T15:14:43;24.30;90.10
7196;DHT22;3639;51.308;5.624;2023-07-20T15:17:09;24.40;89.50
7196;DHT22;3639;51.308;5.624;2023-07-20T15:19:35;24.40;89.00
7196;DHT22;3639;51.308;5.624;2023-07-20T15:22:01;24.40;89.20
7196;DHT22;3639;51.308;5.624;2023-07-20T15:24:28;24.40;89.40
7196;DHT22;3639;51.308;5.624;2023-07-20T15:26:54;24.30;89.50
7196;DHT22;3639;51.308;5.624;2023-07-20T15:29:19;24.30;90.00
7196;DHT22;3639;51.308;5.624;2023-07-20T15:31:46;24.30;90.20
7196;DHT22;3639;51.308;5.624;2023-07-20T15:34:15;24.40;89.10
7196;DHT22;3639;51.308;5.624;2023-07-20T15:36:41;24.40;88.80
7196;DHT22;3639;51.308;5.624;2023-07-20T15:39:08;24.30;89.70
7196;DHT22;3639;51.308;5.624;2023-07-20T15:41:33;24.40;89.20
7196;DHT22;3639;51.308;5.624;2023-07-20T15:44:00;24.40;89.40
7196;DHT22;3639;51.308;5.624;2023-07-20T15:48:51;24.30;89.50
7196;DHT22;3639;51.308;5.624;2023-07-20T15:51:17;24.20;89.40
7196;DHT22;3639;51.308;5.624;2023-07-20T15:53:43;24.20;89.80
7196;DHT22;3639;51.308;5.624;2023-07-20T15:56:09;24.00;89.20
7196;DHT22;3639;51.308;5.624;2023-07-20T15:58:35;23.90;90.00
7196;DHT22;3639;51.308;5.624;2023-07-20T16:01:00;23.80;90.20
7196;DHT22;3639;51.308;5.624;2023-07-20T16:03:26;23.80;90.20
7196;DHT22;3639;51.308;5.624;2023-07-20T16:05:53;23.70;90.40
7196;DHT22;3639;51.308;5.624;2023-07-20T16:08:18;23.70;90.60
7196;DHT22;3639;51.308;5.624;2023-07-20T16:10:44;23.60;90.80